Time;durP1;ratioP1;P1;durP2;ratioP2;P2;SDS_P1;SDS_P2;PMS_P1;PMS_P2;Temp;Humidity;BMP_temperature;BMP_pressure;BME280_temperature;BME280_humidity;BME280_pressure;Samples;Min_cycle;Max_cycle;Signal;HPM_P1;HPM_P2
2023/10/13 00:01:23;;;;;;;28.58;15.20;;;17.50;99.90;;;;;;5032756;28;20387;-75
2023/10/13 00:03:52;;;;;;;25.88;15.35;;;17.50;99.90;;;;;;5031943;28;20383;-76
2023/10/13 00:06:18;;;;;;;24.40;16.20;;;17.50;99.90;;;;;;5031010;28;20751;-75
2023/10/13 00:08:44;;;;;;;24.50;14.80;;;17.40;99.90;;;;;;5030892;28;20394;-75
2023/10/13 00:11:16;;;;;;;27.52;14.73;;;17.40;99.90;;;;;;5030907;28;20419;-76
2023/10/13 00:13:51;;;;;;;26.95;15.52;;;17.50;99.90;;;;;;5030183;28;20834;-75
2023/10/13 00:16:28;;;;;;;25.63;15.18;;;17.50;99.90;;;;;;5030878;28;20375;-76
2023/10/13 00:18:57;;;;;;;23.50;14.85;;;17.40;99.90;;;;;;5030797;28;20947;-76
2023/10/13 00:21:32;;;;;;;28.20;15.18;;;17.40;99.90;;;;;;5030686;28;20449;-76
2023/10/13 00:24:06;;;;;;;28.23;15.00;;;17.40;99.90;;;;;;5030224;28;20475;-75
2023/10/13 00:26:36;;;;;;;24.42;14.88;;;17.40;99.90;;;;;;5031653;28;20853;-75
2023/10/13 00:29:18;;;;;;;22.63;14.13;;;17.40;99.90;;;;;;5030700;28;20753;-75
2023/10/13 00:31:48;;;;;;;28.20;14.90;;;17.50;99.90;;;;;;5030271;28;20410;-74
2023/10/13 00:34:25;;;;;;;20.88;14.50;;;17.50;99.90;;;;;;5030694;28;20391;-74
2023/10/13 00:39:36;;;;;;;23.25;14.82;;;17.50;99.90;;;;;;5030499;28;20382;-75
2023/10/13 00:42:07;;;;;;;24.42;14.73;;;17.50;99.90;;;;;;5029140;28;20399;-75
2023/10/13 00:44:43;;;;;;;23.42;14.80;;;17.50;99.90;;;;;;5030218;28;20398;-75
2023/10/13 00:47:09;;;;;;;20.30;14.07;;;17.50;99.90;;;;;;5030164;28;20391;-75
2023/10/13 00:49:39;;;;;;;23.70;13.88;;;17.50;99.90;;;;;;5030549;28;20383;-75
2023/10/13 00:52:06;;;;;;;26.40;15.20;;;17.50;99.90;;;;;;5029892;28;20403;-75
2023/10/13 00:54:36;;;;;;;23.13;13.93;;;17.40;99.90;;;;;;5030102;28;20393;-75
2023/10/13 00:57:12;;;;;;;21.77;14.00;;;17.40;99.90;;;;;;5030109;28;20386;-74
2023/10/13 00:59:37;;;;;;;21.35;13.63;;;17.40;99.90;;;;;;5030585;28;20379;-75
2023/10/13 01:02:37;;;;;;;21.20;13.50;;;17.40;99.90;;;;;;5030261;28;20391;-75
2023/10/13 01:04:49;;;;;;;23.63;14.48;;;17.40;99.90;;;;;;5030029;28;20391;-75
2023/10/13 01:07:22;;;;;;;20.83;13.40;;;17.30;99.90;;;;;;5029899;28;20388;-74
2023/10/13 01:09:47;;;;;;;23.00;13.68;;;17.30;99.90;;;;;;5030219;28;20382;-75
2023/10/13 01:12:14;;;;;;;20.10;13.02;;;17.30;99.90;;;;;;5030114;28;20469;-75
2023/10/13 01:14:40;;;;;;;22.45;13.05;;;17.20;99.90;;;;;;5029983;28;20406;-75
2023/10/13 01:17:05;;;;;;;22.73;13.50;;;17.20;99.90;;;;;;5030273;28;20387;-75
2023/10/13 01:19:38;;;;;;;22.97;13.23;;;17.30;99.90;;;;;;5030233;28;20445;-74
2023/10/13 01:22:06;;;;;;;19.05;12.60;;;17.20;99.90;;;;;;5029807;28;20382;-74
2023/10/13 01:24:34;;;;;;;20.17;12.68;;;17.30;99.90;;;;;;5029820;28;20401;-75
2023/10/13 01:27:17;;;;;;;21.38;12.38;;;17.30;99.90;;;;;;5029888;28;20758;-76
2023/10/13 01:29:58;;;;;;;22.42;12.75;;;17.30;99.90;;;;;;5030073;28;20383;-76
2023/10/13 01:32:24;;;;;;;18.95;12.65;;;17.30;99.90;;;;;;5029621;28;20439;-75
2023/10/13 01:34:55;;;;;;;21.47;13.03;;;17.30;99.90;;;;;;5029861;28;20855;-76
2023/10/13 01:37:21;;;;;;;25.08;13.50;;;17.30;99.90;;;;;;5032318;28;20379;-75
2023/10/13 01:39:49;;;;;;;22.92;13.75;;;17.30;99.90;;;;;;5033773;28;20466;-76
2023/10/13 01:42:19;;;;;;;17.88;12.80;;;17.30;99.90;;;;;;5033910;28;20470;-76
2023/10/13 01:44:45;;;;;;;20.13;12.93;;;17.30;99.90;;;;;;5033730;28;20706;-76
2023/10/13 01:47:12;;;;;;;21.77;12.52;;;17.30;99.90;;;;;;5033415;28;20406;-76
2023/10/13 01:49:58;;;;;;;21.95;13.02;;;17.30;99.90;;;;;;5033765;28;20445;-76
2023/10/13 01:52:24;;;;;;;23.48;12.88;;;17.40;99.90;;;;;;5033396;28;20415;-76
2023/10/13 01:54:50;;;;;;;19.80;13.00;;;17.40;99.90;;;;;;5033745;28;20433;-75
2023/10/13 01:57:24;;;;;;;20.00;13.32;;;17.40;99.90;;;;;;5033386;28;20446;-76
2023/10/13 01:59:50;;;;;;;18.08;12.55;;;17.40;99.90;;;;;;5033308;28;20410;-77
2023/10/13 02:02:28;;;;;;;24.00;13.13;;;17.40;99.90;;;;;;5033480;28;20476;-76
2023/10/13 02:05:00;;;;;;;25.25;13.63;;;17.40;99.90;;;;;;5033663;28;20782;-75
2023/10/13 02:07:38;;;;;;;22.73;14.20;;;17.30;99.90;;;;;;5033490;28;20470;-76
2023/10/13 02:10:05;;;;;;;22.75;13.35;;;17.30;99.90;;;;;;5033115;28;20379;-76
2023/10/13 02:12:43;;;;;;;20.55;13.40;;;17.30;99.90;;;;;;5032722;28;20464;-76
2023/10/13 02:15:26;;;;;;;23.23;13.40;;;17.40;99.90;;;;;;5033598;28;20482;-76
2023/10/13 02:17:54;;;;;;;18.05;13.65;;;17.40;99.90;;;;;;5031810;28;20415;-75
2023/10/13 02:20:23;;;;;;;24.23;13.60;;;17.40;99.90;;;;;;5032967;28;20387;-76
2023/10/13 02:22:49;;;;;;;22.55;13.70;;;17.40;99.90;;;;;;5032732;28;20387;-75
2023/10/13 02:28:09;;;;;;;24.13;14.57;;;17.40;99.90;;;;;;5033135;28;20382;-76
2023/10/13 02:30:48;;;;;;;21.85;14.52;;;17.40;99.90;;;;;;5033060;28;20481;-76
2023/10/13 02:33:14;;;;;;;24.33;13.98;;;17.40;99.90;;;;;;5031163;28;20468;-76
2023/10/13 02:35:50;;;;;;;19.85;13.50;;;17.40;99.90;;;;;;5032961;28;20734;-75
2023/10/13 02:38:16;;;;;;;23.63;13.88;;;17.40;99.90;;;;;;5032711;28;20386;-76
2023/10/13 02:40:42;;;;;;;18.27;13.30;;;17.40;99.90;;;;;;5032670;28;20407;-75
2023/10/13 02:43:08;;;;;;;26.80;14.60;;;17.40;99.90;;;;;;5032361;28;20429;-76
2023/10/13 02:45:36;;;;;;;24.20;14.23;;;17.40;99.90;;;;;;5031283;28;20390;-77
2023/10/13 02:48:16;;;;;;;18.80;13.75;;;17.30;99.90;;;;;;5031416;28;20445;-76
2023/10/13 02:50:43;;;;;;;19.13;14.05;;;17.30;99.90;;;;;;5032544;28;20406;-76
2023/10/13 02:53:12;;;;;;;22.13;13.30;;;17.30;99.90;;;;;;5032112;28;20812;-76
2023/10/13 02:56:04;;;;;;;25.23;16.60;;;17.40;99.90;;;;;;5032415;28;20433;-76
2023/10/13 02:58:37;;;;;;;21.80;14.90;;;17.30;99.90;;;;;;5032349;28;20446;-76
2023/10/13 03:01:16;;;;;;;29.08;15.30;;;17.30;99.90;;;;;;5032554;28;20440;-76
2023/10/13 03:03:43;;;;;;;21.00;14.70;;;17.40;99.90;;;;;;5032035;28;20866;-75
2023/10/13 03:06:11;;;;;;;28.63;16.25;;;17.50;99.90;;;;;;5032169;28;20383;-76
2023/10/13 03:08:38;;;;;;;21.13;14.77;;;17.50;99.90;;;;;;5032384;28;20418;-76
2023/10/13 03:11:05;;;;;;;25.20;16.05;;;17.50;99.90;;;;;;5032120;28;20827;-76
2023/10/13 03:13:34;;;;;;;27.25;15.88;;;17.50;99.90;;;;;;5031724;28;20399;-75
2023/10/13 03:15:59;;;;;;;22.80;15.60;;;17.40;99.90;;;;;;5035718;22;20500;-73
2023/10/13 03:18:25;;;;;;;25.00;14.80;;;17.50;99.90;;;;;;5031844;28;20387;-73
2023/10/13 03:20:56;;;;;;;25.57;15.70;;;17.50;99.90;;;;;;5025566;28;20373;-72
2023/10/13 03:23:24;;;;;;;23.30;15.60;;;17.40;99.90;;;;;;5019501;28;20373;-73
2023/10/13 03:25:50;;;;;;;28.92;17.23;;;17.40;99.90;;;;;;5019072;28;20863;-73
2023/10/13 03:28:18;;;;;;;26.80;16.90;;;17.40;99.90;;;;;;5020295;28;20381;-73
2023/10/13 03:30:43;;;;;;;27.33;15.97;;;17.40;99.90;;;;;;5016723;28;20381;-72
2023/10/13 03:33:11;;;;;;;26.90;16.80;;;17.40;99.90;;;;;;5011702;28;20503;-71
2023/10/13 03:35:41;;;;;;;27.05;17.88;;;17.40;99.90;;;;;;5012102;28;20438;-74
2023/10/13 03:38:17;;;;;;;29.40;16.05;;;17.40;99.90;;;;;;5012039;28;21075;-74
2023/10/13 03:40:56;;;;;;;38.15;17.85;;;17.40;99.90;;;;;;5012278;28;20392;-73
2023/10/13 03:43:21;;;;;;;28.30;17.20;;;17.40;99.90;;;;;;5011584;28;20871;-73
2023/10/13 03:46:00;;;;;;;26.80;17.17;;;17.40;99.90;;;;;;5011657;28;20411;-73
2023/10/13 03:51:03;;;;;;;27.42;17.05;;;17.40;99.90;;;;;;5011550;28;20751;-73
2023/10/13 03:53:33;;;;;;;27.02;17.45;;;17.40;99.90;;;;;;4995143;28;20405;-73
2023/10/13 03:56:11;;;;;;;29.83;17.83;;;17.40;99.90;;;;;;5012131;28;20728;-72
2023/10/13 03:58:39;;;;;;;23.63;16.38;;;17.40;99.90;;;;;;5011858;28;20384;-73
2023/10/13 04:01:09;;;;;;;29.30;16.80;;;17.40;99.90;;;;;;5011754;28;20385;-73
2023/10/13 04:03:36;;;;;;;26.87;16.70;;;17.30;99.90;;;;;;5011765;28;20385;-73
2023/10/13 04:06:08;;;;;;;29.55;17.00;;;17.30;99.90;;;;;;5011382;28;20476;-74
2023/10/13 04:16:52;;;;;;;28.02;18.08;;;17.30;99.90;;;;;;5011843;28;20458;-72
2023/10/13 04:19:23;;;;;;;29.33;17.30;;;17.30;99.90;;;;;;5011591;28;20381;-73
2023/10/13 04:21:59;;;;;;;29.35;17.60;;;17.30;99.90;;;;;;5011539;28;20470;-73
2023/10/13 04:25:00;;;;;;;29.67;18.27;;;17.30;99.90;;;;;;5010789;28;20385;-72
2023/10/13 04:27:39;;;;;;;31.52;19.02;;;17.20;99.90;;;;;;5010577;28;20412;-73
2023/10/13 04:32:52;;;;;;;28.50;16.85;;;17.20;99.90;;;;;;5010621;28;20511;-72
2023/10/13 04:35:18;;;;;;;29.90;17.42;;;17.30;99.90;;;;;;5010760;28;20385;-74
2023/10/13 04:37:54;;;;;;;28.13;18.27;;;17.30;99.90;;;;;;5010848;28;20392;-74
2023/10/13 04:40:24;;;;;;;30.90;17.48;;;17.30;99.90;;;;;;5010768;28;20381;-74
2023/10/13 04:42:53;;;;;;;29.85;17.63;;;17.40;99.90;;;;;;5010596;28;20387;-74
2023/10/13 04:48:13;;;;;;;35.95;18.70;;;17.40;99.90;;;;;;5010712;28;20423;-74
2023/10/13 04:50:45;;;;;;;32.55;17.42;;;17.30;99.90;;;;;;5010551;28;20399;-73
2023/10/13 05:04:22;;;;;;;27.40;17.88;;;17.40;99.90;;;;;;4976860;28;20902;-73
2023/10/13 06:31:06;;;;;;;25.05;12.88;;;18.00;99.90;;;;;;5022433;28;20407;-73
2023/10/13 06:33:33;;;;;;;25.73;14.55;;;18.00;99.90;;;;;;5022664;28;20436;-73
2023/10/13 06:36:00;;;;;;;26.13;14.05;;;18.10;99.90;;;;;;5022040;28;20833;-74
2023/10/13 06:38:30;;;;;;;26.25;13.77;;;18.00;99.90;;;;;;5017382;28;20389;-74
2023/10/13 06:40:57;;;;;;;23.40;13.30;;;18.00;99.90;;;;;;5013782;28;20884;-74
2023/10/13 06:43:23;;;;;;;25.48;13.93;;;18.00;99.90;;;;;;5012832;28;20395;-73
2023/10/13 06:46:03;;;;;;;24.83;13.80;;;18.00;99.90;;;;;;5013305;28;20723;-73
2023/10/13 06:48:33;;;;;;;27.90;15.00;;;18.00;99.90;;;;;;5013366;28;20393;-73
2023/10/13 06:51:03;;;;;;;31.63;14.90;;;18.00;99.90;;;;;;5015149;28;20387;-73
2023/10/13 06:53:29;;;;;;;27.67;14.30;;;18.10;99.90;;;;;;5010017;28;20831;-73
2023/10/13 06:55:58;;;;;;;29.30;15.57;;;18.20;99.90;;;;;;5003633;28;20412;-73
2023/10/13 06:58:24;;;;;;;31.33;14.93;;;18.20;99.90;;;;;;5007909;28;20393;-73
2023/10/13 07:00:55;;;;;;;21.03;13.77;;;18.20;99.90;;;;;;5013850;28;20865;-74
2023/10/13 07:03:21;;;;;;;25.05;14.52;;;18.30;99.90;;;;;;5001599;28;20404;-72
2023/10/13 07:05:50;;;;;;;31.42;15.20;;;18.30;99.90;;;;;;5003516;28;20400;-72
2023/10/13 07:08:23;;;;;;;27.13;15.20;;;18.40;99.90;;;;;;5007351;28;20403;-73
2023/10/13 07:11:08;;;;;;;24.40;13.75;;;18.40;99.90;;;;;;4993538;28;20890;-72
2023/10/13 07:13:47;;;;;;;25.83;14.70;;;18.50;99.90;;;;;;5003007;28;20417;-74
2023/10/13 07:16:12;;;;;;;22.65;14.10;;;18.70;99.90;;;;;;5010443;28;20420;-70
2023/10/13 07:18:49;;;;;;;27.20;13.90;;;18.70;99.90;;;;;;5003390;28;20397;-72
2023/10/13 07:21:24;;;;;;;27.15;14.10;;;18.80;99.90;;;;;;5006866;28;20467;-73
2023/10/13 07:24:00;;;;;;;25.38;14.00;;;18.80;99.90;;;;;;4991943;28;20466;-73
2023/10/13 07:26:26;;;;;;;31.00;14.90;;;18.80;99.90;;;;;;4994683;28;20425;-73
2023/10/13 07:28:52;;;;;;;23.92;14.77;;;18.80;99.90;;;;;;4992110;28;20445;-74
2023/10/13 07:31:20;;;;;;;24.97;13.43;;;18.80;99.90;;;;;;4992204;28;20394;-73
2023/10/13 07:33:47;;;;;;;24.73;13.63;;;18.90;99.90;;;;;;4999045;28;20451;-72
2023/10/13 07:36:15;;;;;;;21.58;13.02;;;18.90;99.90;;;;;;5009955;28;20400;-73
2023/10/13 07:38:49;;;;;;;20.17;12.48;;;18.90;99.90;;;;;;4999966;28;20400;-71
2023/10/13 07:41:17;;;;;;;28.38;14.13;;;18.90;99.90;;;;;;5011558;28;20389;-73
2023/10/13 07:43:44;;;;;;;24.17;13.38;;;19.00;99.90;;;;;;5011901;28;20494;-73
2023/10/13 07:46:12;;;;;;;24.02;13.35;;;19.20;99.90;;;;;;5011695;28;20396;-73
2023/10/13 07:48:40;;;;;;;22.40;13.30;;;19.30;98.40;;;;;;5013363;28;20446;-75
2023/10/13 07:51:11;;;;;;;26.98;13.60;;;19.30;96.80;;;;;;5022926;28;20392;-74
2023/10/13 07:53:40;;;;;;;25.98;13.55;;;19.30;95.60;;;;;;5025368;28;20440;-73
2023/10/13 07:56:11;;;;;;;24.95;13.35;;;19.30;96.20;;;;;;4991389;28;20428;-72
2023/10/13 07:58:47;;;;;;;25.92;13.95;;;19.20;97.60;;;;;;5012885;28;20443;-74
2023/10/13 08:01:17;;;;;;;28.10;13.00;;;19.20;97.80;;;;;;5012543;28;20487;-75
2023/10/13 08:03:45;;;;;;;25.02;12.80;;;19.30;98.00;;;;;;5011660;28;20465;-73
2023/10/13 08:08:43;;;;;;;22.15;13.10;;;19.30;97.90;;;;;;4992189;28;20405;-73
2023/10/13 08:11:47;;;;;;;28.87;12.63;;;19.30;97.60;;;;;;4996329;28;20393;-75
2023/10/13 08:14:17;;;;;;;26.35;13.25;;;19.30;97.20;;;;;;4990343;28;20414;-73
2023/10/13 08:16:52;;;;;;;24.30;11.80;;;19.30;95.90;;;;;;4991825;28;20398;-73
2023/10/13 08:19:27;;;;;;;25.33;13.05;;;19.30;95.20;;;;;;5008363;28;20762;-70
2023/10/13 08:21:59;;;;;;;25.05;12.68;;;19.30;96.30;;;;;;5010981;28;20875;-72
2023/10/13 08:47:53;;;;;;;24.10;10.37;;;20.80;78.10;;;;;;5002930;28;20742;-72
2023/10/13 08:50:47;;;;;;;27.75;11.27;;;20.80;79.00;;;;;;4991126;28;20489;-72
2023/10/13 08:53:34;;;;;;;20.30;10.00;;;21.00;76.60;;;;;;4990997;28;20945;-72
2023/10/13 09:02:15;;;;;;;31.73;10.70;;;21.10;73.00;;;;;;4994123;28;20752;-77
2023/10/13 09:09:35;;;;;;;28.40;9.25;;;21.50;67.80;;;;;;4996148;28;20394;-73
2023/10/13 09:18:15;;;;;;;28.90;10.43;;;22.00;61.70;;;;;;4995587;28;20500;-70
2023/10/13 09:23:12;;;;;;;22.53;9.73;;;22.20;59.20;;;;;;5010994;28;20476;-71
2023/10/13 09:25:53;;;;;;;22.95;8.75;;;22.30;57.40;;;;;;5010025;28;20539;-71
2023/10/13 09:28:22;;;;;;;25.10;8.23;;;22.40;54.90;;;;;;4995228;28;20402;-71
2023/10/13 09:30:56;;;;;;;24.23;8.55;;;22.60;53.40;;;;;;5011056;28;21785;-72
2023/10/13 09:33:35;;;;;;;24.35;8.15;;;22.80;50.40;;;;;;4994306;28;20430;-71
2023/10/13 09:36:04;;;;;;;17.92;7.70;;;22.70;48.70;;;;;;5010969;28;20573;-71
2023/10/13 09:38:32;;;;;;;19.67;7.95;;;22.80;47.60;;;;;;4993704;28;20385;-72
2023/10/13 09:41:01;;;;;;;17.88;7.90;;;22.80;47.10;;;;;;5010847;28;20721;-70
2023/10/13 09:43:28;;;;;;;21.70;8.20;;;22.80;44.80;;;;;;4987089;28;20473;-71
2023/10/13 09:46:07;;;;;;;20.30;8.00;;;22.90;44.20;;;;;;4991185;28;20394;-72
2023/10/13 09:48:35;;;;;;;23.67;7.75;;;22.90;44.00;;;;;;4991308;28;20819;-72
2023/10/13 09:51:09;;;;;;;21.70;8.35;;;23.10;43.30;;;;;;5000043;28;20405;-70
2023/10/13 09:53:37;;;;;;;19.63;7.72;;;23.30;41.60;;;;;;5010347;28;20415;-71
2023/10/13 09:56:13;;;;;;;16.55;7.43;;;23.50;40.60;;;;;;4993072;28;20381;-71
2023/10/13 09:58:47;;;;;;;18.47;9.60;;;23.80;39.30;;;;;;5013302;28;20475;-71
2023/10/13 10:01:21;;;;;;;20.13;8.20;;;24.20;37.30;;;;;;5013763;28;20466;-70
2023/10/13 10:06:39;;;;;;;19.13;8.30;;;24.80;34.10;;;;;;4985713;28;20391;-72
2023/10/13 10:09:12;;;;;;;17.90;7.77;;;25.10;31.40;;;;;;4994298;28;20869;-71
2023/10/13 10:11:56;;;;;;;20.20;8.15;;;24.90;30.40;;;;;;4995834;28;20752;-74
2023/10/13 10:14:37;;;;;;;27.70;8.23;;;24.90;30.80;;;;;;4994854;28;20403;-71
2023/10/13 10:17:08;;;;;;;19.43;7.90;;;25.00;30.00;;;;;;5011563;28;20407;-81
2023/10/13 10:19:45;;;;;;;21.20;8.77;;;25.10;29.50;;;;;;5028662;28;20412;-72
2023/10/13 10:22:16;;;;;;;20.07;8.77;;;25.10;29.00;;;;;;5016253;28;20393;-73
2023/10/13 10:24:43;;;;;;;14.50;7.45;;;25.10;28.90;;;;;;4999007;28;20382;-73
2023/10/13 10:27:14;;;;;;;22.75;8.00;;;25.20;28.30;;;;;;5014456;28;20401;-72
2023/10/13 10:30:01;;;;;;;22.95;8.35;;;25.20;28.00;;;;;;5011129;28;20396;-73
2023/10/13 10:32:37;;;;;;;16.85;7.82;;;25.30;27.50;;;;;;5011798;28;20422;-73
2023/10/13 10:35:14;;;;;;;24.33;8.53;;;25.30;26.90;;;;;;5001323;28;20394;-74
2023/10/13 10:37:47;;;;;;;20.65;9.10;;;25.10;26.60;;;;;;4998684;28;20428;-72
2023/10/13 10:43:04;;;;;;;18.58;8.98;;;25.10;27.00;;;;;;4999750;28;20488;-74
2023/10/13 10:45:33;;;;;;;18.25;8.75;;;25.10;26.80;;;;;;4999356;28;20479;-73
2023/10/13 10:47:59;;;;;;;16.45;8.90;;;25.20;26.60;;;;;;5014518;28;20389;-73
2023/10/13 10:50:34;;;;;;;21.20;8.80;;;25.20;26.10;;;;;;5010635;28;20792;-71
2023/10/13 10:53:04;;;;;;;25.40;10.00;;;25.30;26.40;;;;;;4979218;28;20524;-72
2023/10/13 10:55:32;;;;;;;19.58;8.80;;;25.10;27.30;;;;;;4997329;28;20951;-72
2023/10/13 10:57:59;;;;;;;18.90;8.40;;;25.20;26.90;;;;;;4976287;28;20422;-73
2023/10/13 11:00:36;;;;;;;22.35;9.07;;;25.10;27.10;;;;;;5007572;28;20438;-72
2023/10/13 11:03:04;;;;;;;19.65;8.82;;;25.10;25.90;;;;;;5019559;28;20450;-72
2023/10/13 11:05:32;;;;;;;22.77;8.90;;;25.10;25.60;;;;;;5003566;28;20457;-73
2023/10/13 11:07:58;;;;;;;20.10;9.00;;;25.20;25.90;;;;;;5011521;28;20925;-72
2023/10/13 11:10:27;;;;;;;17.65;9.52;;;25.30;25.60;;;;;;4992041;28;20390;-72
2023/10/13 11:13:11;;;;;;;22.80;9.32;;;25.40;25.10;;;;;;4994596;28;20419;-73
2023/10/13 11:15:46;;;;;;;18.83;8.50;;;25.50;24.50;;;;;;4993460;28;20442;-73
2023/10/13 11:18:22;;;;;;;19.17;8.03;;;25.50;24.20;;;;;;4994892;28;20410;-71
2023/10/13 11:20:54;;;;;;;23.80;8.57;;;25.50;23.80;;;;;;4979051;28;20398;-73
2023/10/13 11:23:25;;;;;;;21.30;8.52;;;25.60;23.00;;;;;;4996692;28;20448;-72
2023/10/13 11:25:58;;;;;;;21.80;8.40;;;25.70;23.30;;;;;;5011200;28;20442;-74
2023/10/13 11:28:27;;;;;;;28.08;9.68;;;25.60;23.40;;;;;;5003063;28;20468;-74
2023/10/13 11:31:10;;;;;;;27.42;9.93;;;25.90;23.10;;;;;;5004932;28;20401;-73
2023/10/13 11:33:46;;;;;;;24.47;8.33;;;25.90;23.10;;;;;;5023389;28;20424;-74
2023/10/13 11:36:22;;;;;;;24.08;8.70;;;25.90;22.30;;;;;;5004525;28;20389;-74
2023/10/13 11:41:14;;;;;;;20.02;8.57;;;25.70;21.60;;;;;;5019519;28;20478;-74
2023/10/13 11:43:52;;;;;;;22.05;7.85;;;25.70;22.40;;;;;;5017805;28;20403;-75
2023/10/13 11:51:39;;;;;;;25.45;8.27;;;26.10;22.80;;;;;;5020208;28;20427;-74
2023/10/13 11:54:05;;;;;;;27.58;8.07;;;26.40;20.80;;;;;;5020688;28;20397;-73
2023/10/13 11:56:30;;;;;;;25.88;8.23;;;26.50;20.10;;;;;;5020071;28;20492;-74
2023/10/13 11:59:01;;;;;;;24.23;8.00;;;26.70;19.90;;;;;;5021307;28;20385;-74
2023/10/13 12:09:57;;;;;;;24.30;8.00;;;26.70;18.50;;;;;;5017198;28;20423;-74
2023/10/13 12:12:23;;;;;;;18.80;7.23;;;26.50;18.70;;;;;;4999768;28;20408;-73
2023/10/13 12:14:52;;;;;;;23.75;7.30;;;26.40;19.30;;;;;;4998330;28;20396;-74
2023/10/13 12:17:28;;;;;;;23.45;7.05;;;26.40;19.30;;;;;;5015339;28;20385;-73
2023/10/13 12:19:57;;;;;;;25.75;7.60;;;26.30;19.40;;;;;;4998008;28;20823;-73
2023/10/13 12:22:51;;;;;;;18.65;6.90;;;26.30;19.30;;;;;;5015067;28;20752;-75
2023/10/13 12:25:25;;;;;;;26.52;7.43;;;26.30;19.20;;;;;;5015431;28;20400;-74
2023/10/13 12:27:56;;;;;;;27.17;7.80;;;26.30;19.80;;;;;;5017096;28;20385;-74
2023/10/13 12:30:48;;;;;;;30.08;8.00;;;26.30;19.70;;;;;;5015469;28;20467;-73
2023/10/13 12:33:23;;;;;;;21.20;6.95;;;26.20;19.40;;;;;;5014865;28;20784;-73
2023/10/13 12:52:16;;;;;;;25.37;7.90;;;25.70;19.70;;;;;;5015548;28;20505;-74
2023/10/13 12:57:23;;;;;;;26.73;8.13;;;25.60;19.80;;;;;;5014642;28;20472;-74
2023/10/13 12:59:53;;;;;;;31.92;8.30;;;25.60;19.30;;;;;;5013985;28;20397;-74
2023/10/13 13:02:24;;;;;;;23.30;7.60;;;25.70;18.70;;;;;;5014166;28;20381;-73
2023/10/13 13:04:54;;;;;;;40.22;8.18;;;25.70;18.90;;;;;;5013807;28;20500;-73
2023/10/13 13:07:20;;;;;;;27.92;8.00;;;25.70;18.70;;;;;;5014004;28;20557;-74
2023/10/13 13:09:46;;;;;;;22.77;8.18;;;25.60;18.80;;;;;;5014933;28;20389;-73
2023/10/13 13:12:12;;;;;;;26.67;8.05;;;25.60;18.80;;;;;;5013848;28;20426;-73
2023/10/13 13:14:41;;;;;;;29.05;8.00;;;25.60;19.30;;;;;;5014168;28;20400;-75
2023/10/13 13:17:07;;;;;;;24.83;7.40;;;25.50;19.30;;;;;;4996482;28;20443;-74
2023/10/13 13:19:39;;;;;;;30.20;7.20;;;25.60;19.60;;;;;;5015507;28;20868;-74
2023/10/13 13:22:11;;;;;;;26.90;8.10;;;25.60;19.20;;;;;;5014943;28;20380;-74
2023/10/13 13:24:44;;;;;;;31.02;7.93;;;25.60;19.20;;;;;;5014711;28;20385;-73
2023/10/13 13:27:17;;;;;;;36.38;8.65;;;25.60;19.00;;;;;;5009337;28;20389;-73
2023/10/13 13:29:43;;;;;;;25.85;7.95;;;25.50;19.10;;;;;;5009211;28;20894;-74
2023/10/13 13:32:24;;;;;;;29.30;8.10;;;25.60;18.90;;;;;;5005120;28;20429;-74
2023/10/13 13:35:13;;;;;;;28.65;8.20;;;25.60;18.70;;;;;;5006428;28;20404;-73
2023/10/13 13:37:40;;;;;;;25.83;8.50;;;25.60;19.00;;;;;;5000230;28;20393;-74
2023/10/13 13:40:15;;;;;;;25.45;8.07;;;25.40;18.80;;;;;;5003683;28;20695;-73
2023/10/13 13:42:45;;;;;;;24.13;7.90;;;25.30;18.80;;;;;;5006030;28;20391;-75
2023/10/13 13:45:31;;;;;;;27.02;7.78;;;25.30;19.10;;;;;;5008967;28;20458;-74
2023/10/13 13:47:57;;;;;;;22.83;8.30;;;25.10;18.90;;;;;;5004129;28;20421;-74
2023/10/13 13:50:26;;;;;;;27.33;8.13;;;25.10;19.10;;;;;;5006683;28;20379;-73
2023/10/13 13:52:56;;;;;;;28.77;7.93;;;25.00;18.80;;;;;;5021012;28;20492;-75
2023/10/13 13:55:23;;;;;;;33.50;7.70;;;25.10;18.50;;;;;;5024610;28;20416;-73
2023/10/13 13:57:50;;;;;;;29.50;7.30;;;25.10;18.30;;;;;;5016871;28;20386;-73
2023/10/13 14:00:18;;;;;;;34.00;8.10;;;25.10;18.60;;;;;;5000713;28;20390;-74
2023/10/13 14:02:47;;;;;;;28.43;8.30;;;25.10;18.70;;;;;;4982642;28;20566;-73
2023/10/13 14:05:16;;;;;;;22.67;7.40;;;25.20;18.90;;;;;;5001225;28;20403;-73
2023/10/13 14:07:48;;;;;;;24.48;7.85;;;25.10;18.90;;;;;;5002024;28;20398;-74
2023/10/13 14:10:30;;;;;;;28.05;7.90;;;25.30;18.70;;;;;;5003525;28;20496;-74
2023/10/13 14:13:06;;;;;;;27.43;7.77;;;25.10;19.10;;;;;;5000603;28;20941;-72
2023/10/13 14:15:40;;;;;;;22.10;7.60;;;24.90;19.10;;;;;;5019307;28;20872;-72
2023/10/13 14:18:14;;;;;;;28.95;7.25;;;24.80;19.40;;;;;;5018479;28;20783;-73
2023/10/13 14:20:42;;;;;;;33.92;7.88;;;24.70;19.30;;;;;;4999795;28;20939;-74
2023/10/13 14:23:11;;;;;;;37.53;8.85;;;24.60;19.40;;;;;;5016840;28;20385;-73
2023/10/13 14:25:38;;;;;;;28.40;8.43;;;24.50;19.70;;;;;;5016940;28;20842;-72
2023/10/13 14:28:05;;;;;;;30.88;8.05;;;24.40;19.80;;;;;;4992311;28;20405;-74
2023/10/13 14:30:31;;;;;;;24.80;7.70;;;24.30;19.90;;;;;;4999101;28;20390;-74
2023/10/13 14:32:58;;;;;;;22.77;7.43;;;24.20;20.10;;;;;;4980925;28;20418;-75
2023/10/13 14:35:25;;;;;;;27.33;8.50;;;24.10;20.00;;;;;;4982050;28;20391;-74
2023/10/13 14:37:52;;;;;;;25.48;7.95;;;24.00;20.10;;;;;;4998178;28;20466;-74
2023/10/13 14:40:21;;;;;;;26.02;8.52;;;23.90;20.30;;;;;;4999581;28;20418;-75
2023/10/13 14:42:47;;;;;;;30.05;8.05;;;23.90;20.30;;;;;;4998165;28;20861;-74
2023/10/13 14:45:15;;;;;;;26.77;7.35;;;23.80;20.30;;;;;;4997574;28;20390;-74
2023/10/13 14:47:42;;;;;;;24.83;8.80;;;23.80;20.20;;;;;;5000793;28;20842;-74
2023/10/13 14:50:19;;;;;;;25.30;7.70;;;23.70;20.40;;;;;;4998065;28;20394;-75
2023/10/13 14:52:45;;;;;;;25.70;8.07;;;23.70;20.50;;;;;;4997603;28;20498;-74
2023/10/13 14:55:21;;;;;;;25.08;7.70;;;23.70;20.60;;;;;;4997550;28;20394;-74
2023/10/13 14:57:50;;;;;;;24.27;7.78;;;23.70;20.90;;;;;;4997587;28;20387;-74
2023/10/13 15:00:24;;;;;;;23.60;7.47;;;23.70;21.20;;;;;;4997730;28;20418;-73
2023/10/13 15:02:54;;;;;;;27.35;7.93;;;23.50;21.10;;;;;;5017263;28;20860;-73
2023/10/13 15:05:19;;;;;;;27.20;7.10;;;23.50;20.70;;;;;;5015338;28;20483;-72
2023/10/13 15:07:45;;;;;;;22.07;8.03;;;23.40;20.80;;;;;;4998541;28;20888;-73
2023/10/13 15:10:14;;;;;;;17.35;7.40;;;23.40;21.00;;;;;;5015792;28;20607;-74
2023/10/13 15:12:41;;;;;;;21.25;7.50;;;23.50;20.80;;;;;;5013147;28;20412;-73
2023/10/13 15:15:13;;;;;;;18.40;7.40;;;23.40;21.30;;;;;;4999834;28;20806;-75
2023/10/13 15:17:40;;;;;;;17.42;7.10;;;23.40;21.40;;;;;;5002954;28;20414;-76
2023/10/13 15:20:09;;;;;;;21.20;7.40;;;23.30;21.50;;;;;;4998768;28;20390;-75
2023/10/13 15:22:36;;;;;;;24.27;8.30;;;23.30;21.30;;;;;;5000979;28;20416;-77
2023/10/13 15:25:20;;;;;;;24.17;7.80;;;23.20;21.50;;;;;;4998808;28;20390;-74
2023/10/13 15:27:55;;;;;;;26.65;8.00;;;23.20;21.40;;;;;;4997330;28;20747;-74
2023/10/13 15:30:23;;;;;;;22.13;8.30;;;23.20;21.30;;;;;;4997027;28;20402;-75
2023/10/13 15:32:50;;;;;;;25.20;8.10;;;23.20;21.30;;;;;;4996375;28;20437;-76
2023/10/13 15:35:16;;;;;;;24.63;7.57;;;23.20;21.60;;;;;;4978863;28;20893;-73
2023/10/13 15:37:47;;;;;;;28.55;7.60;;;23.40;21.30;;;;;;4996610;28;20393;-75
2023/10/13 15:40:15;;;;;;;26.15;7.88;;;23.20;21.60;;;;;;4996936;28;20387;-75
2023/10/13 15:42:42;;;;;;;21.38;8.50;;;23.10;21.70;;;;;;4979088;28;20394;-75
2023/10/13 15:45:16;;;;;;;21.45;8.20;;;23.10;21.80;;;;;;4981838;28;20678;-74
2023/10/13 15:47:46;;;;;;;23.60;8.10;;;23.10;21.80;;;;;;4996845;28;20944;-74
2023/10/13 15:50:16;;;;;;;26.75;8.02;;;23.00;22.00;;;;;;4998724;28;20395;-75
2023/10/13 15:52:46;;;;;;;17.75;7.38;;;23.00;21.90;;;;;;4980804;28;20438;-75
2023/10/13 15:55:13;;;;;;;23.15;7.60;;;23.00;22.10;;;;;;4998115;28;20440;-76
2023/10/13 15:57:39;;;;;;;23.70;7.78;;;22.90;22.10;;;;;;4997762;28;20391;-76
2023/10/13 16:00:22;;;;;;;20.90;8.23;;;22.80;22.40;;;;;;4979444;28;20396;-76
2023/10/13 16:02:50;;;;;;;18.08;7.70;;;22.80;22.70;;;;;;4995195;28;20422;-75
2023/10/13 16:05:16;;;;;;;29.40;7.63;;;22.80;22.30;;;;;;4995447;28;20470;-75
2023/10/13 16:07:41;;;;;;;23.10;7.83;;;22.80;22.30;;;;;;4996613;28;20803;-75
2023/10/13 16:10:11;;;;;;;14.05;7.35;;;22.80;22.50;;;;;;4996960;28;20390;-74
2023/10/13 16:12:37;;;;;;;17.33;7.70;;;22.80;22.50;;;;;;4995604;28;20422;-75
2023/10/13 16:15:05;;;;;;;22.53;7.70;;;22.80;22.40;;;;;;4996123;28;20402;-75